createdAt,value
2018-08-09T00:00:26.014Z,21.26
2018-08-09T00:02:55.724Z,21.27
2018-08-09T00:05:25.523Z,21.10
2018-08-09T00:07:55.589Z,20.94
2018-08-09T00:10:26.674Z,20.92
2018-08-09T00:12:56.618Z,20.93
2018-08-09T00:15:26.894Z,20.79
2018-08-09T00:17:56.856Z,20.90
2018-08-09T00:20:26.662Z,20.90
2018-08-09T00:22:56.456Z,20.83
2018-08-09T00:25:26.408Z,20.88
2018-08-09T00:27:56.282Z,20.86
2018-08-09T00:30:26.137Z,20.77
2018-08-09T00:32:56.252Z,20.72
2018-08-09T00:35:26.540Z,20.83
2018-08-09T00:37:56.900Z,20.74
2018-08-09T00:40:26.781Z,20.62
2018-08-09T00:42:56.756Z,20.49
2018-08-09T00:45:26.567Z,20.36
2018-08-09T00:47:56.495Z,20.35
2018-08-09T00:50:26.637Z,20.33
2018-08-09T00:52:56.398Z,20.36
2018-08-09T00:55:26.148Z,20.24
2018-08-09T00:57:56.298Z,20.26
2018-08-09T01:00:26.130Z,20.24
2018-08-09T01:02:56.000Z,20.20
2018-08-09T01:05:25.876Z,20.19
2018-08-09T01:07:56.188Z,20.17
2018-08-09T01:10:26.468Z,20.10
2018-08-09T01:12:56.498Z,20.08
2018-08-09T01:15:26.481Z,20.01
2018-08-09T01:17:56.363Z,19.98
2018-08-09T01:20:26.112Z,19.94
2018-08-09T01:22:56.136Z,20.09
2018-08-09T01:25:25.905Z,20.07
2018-08-09T01:27:55.907Z,20.09
2018-08-09T01:30:25.815Z,20.00
2018-08-09T01:32:55.535Z,20.07
2018-08-09T01:35:26.345Z,20.08
2018-08-09T01:37:56.034Z,20.04
2018-08-09T01:40:25.871Z,20.02
2018-08-09T01:43:12.689Z,20.05
2018-08-09T01:45:42.992Z,19.86
2018-08-09T01:48:12.879Z,19.86
2018-08-09T01:50:44.230Z,19.75
2018-08-09T01:53:14.299Z,19.72
2018-08-09T01:55:44.502Z,19.78
2018-08-09T01:58:18.473Z,19.75
2018-08-09T02:00:48.054Z,19.67
2018-08-09T02:03:43.405Z,19.54
2018-08-09T02:06:14.232Z,19.36
2018-08-09T02:08:45.204Z,19.41
2018-08-09T02:11:14.930Z,19.44
2018-08-09T02:13:45.519Z,19.53
2018-08-09T02:16:15.425Z,19.50
2018-08-09T02:18:46.456Z,19.68
2018-08-09T02:21:16.775Z,19.66
2018-08-09T02:23:47.497Z,19.49
2018-08-09T02:26:17.145Z,19.34
2018-08-09T02:28:47.139Z,19.30
2018-08-09T02:31:17.268Z,19.27
2018-08-09T02:33:47.753Z,19.40
2018-08-09T02:36:23.866Z,19.41
2018-08-09T02:38:53.912Z,19.43
2018-08-09T02:41:24.244Z,19.35
2018-08-09T02:43:54.215Z,19.35
2018-08-09T02:46:24.007Z,19.35
2018-08-09T02:48:53.753Z,19.37
2018-08-09T02:51:24.064Z,19.40
2018-08-09T02:53:53.810Z,19.57
2018-08-09T02:56:24.356Z,19.43
2018-08-09T02:58:54.479Z,19.32
2018-08-09T03:01:24.691Z,19.54
2018-08-09T03:03:54.568Z,19.63
2018-08-09T03:06:24.866Z,19.50
2018-08-09T03:08:54.744Z,19.32
2018-08-09T03:11:24.800Z,19.24
2018-08-09T03:13:54.670Z,19.07
2018-08-09T03:16:24.837Z,19.07
2018-08-09T03:18:54.958Z,18.97
2018-08-09T03:21:24.852Z,18.98
2018-08-09T03:23:55.234Z,19.04
2018-08-09T03:26:27.963Z,19.28
2018-08-09T03:28:58.535Z,19.24
2018-08-09T03:31:28.352Z,19.17
2018-08-09T03:33:58.230Z,19.08
2018-08-09T03:36:29.096Z,19.03
2018-08-09T03:38:58.862Z,18.99
2018-08-09T03:41:28.796Z,18.94
2018-08-09T03:43:58.654Z,18.94
2018-08-09T03:46:28.285Z,18.94
2018-08-09T03:48:58.591Z,19.03
2018-08-09T03:51:28.372Z,18.95
2018-08-09T03:53:58.139Z,18.87
2018-08-09T03:56:28.265Z,18.89
2018-08-09T03:58:58.268Z,18.90
2018-08-09T04:01:28.314Z,18.93
2018-08-09T04:03:58.217Z,18.94
2018-08-09T04:06:28.359Z,18.92
2018-08-09T04:08:58.296Z,18.99
2018-08-09T04:11:28.386Z,19.02
2018-08-09T04:13:58.103Z,19.05
2018-08-09T04:16:28.065Z,19.06
2018-08-09T04:18:58.279Z,19.07
2018-08-09T04:21:28.283Z,19.12
2018-08-09T04:23:58.265Z,19.20
2018-08-09T04:26:28.032Z,19.21
2018-08-09T04:28:57.997Z,19.31
2018-08-09T04:31:28.839Z,19.29
2018-08-09T04:33:58.775Z,19.32
2018-08-09T04:36:28.543Z,19.49
2018-08-09T04:38:58.784Z,19.49
2018-08-09T04:41:28.595Z,19.61
2018-08-09T04:43:58.860Z,19.93
2018-08-09T04:46:29.545Z,20.51
2018-08-09T04:49:00.220Z,20.75
2018-08-09T04:51:30.130Z,21.86
2018-08-09T04:54:00.606Z,22.27
2018-08-09T04:56:30.812Z,21.86
2018-08-09T04:59:00.977Z,22.41
2018-08-09T05:01:35.790Z,22.27
2018-08-09T05:04:05.684Z,22.61
2018-08-09T05:06:36.288Z,23.34
2018-08-09T05:09:10.041Z,23.48
2018-08-09T05:11:40.305Z,24.16
2018-08-09T05:14:10.072Z,24.57
2018-08-09T05:16:40.372Z,23.99
2018-08-09T05:19:10.380Z,24.57
2018-08-09T05:21:40.691Z,23.92
2018-08-09T05:24:10.675Z,26.05
2018-08-09T05:26:40.491Z,26.47
2018-08-09T05:29:17.977Z,26.36
2018-08-09T05:31:48.517Z,22.82
2018-08-09T05:34:18.478Z,22.74
2018-08-09T05:36:48.228Z,21.65
2018-08-09T05:39:18.844Z,20.99
2018-08-09T05:41:48.540Z,21.78
2018-08-09T05:44:18.200Z,22.11
2018-08-09T05:46:48.607Z,24.10
2018-08-09T05:49:18.521Z,26.42
2018-08-09T05:51:48.264Z,26.40
2018-08-09T05:54:18.058Z,25.52
2018-08-09T05:56:48.305Z,28.30
2018-08-09T05:59:18.429Z,26.85
2018-08-09T06:01:48.356Z,28.19
2018-08-09T06:04:18.757Z,29.32
2018-08-09T06:06:49.058Z,29.67
2018-08-09T06:09:19.072Z,30.27
2018-08-09T06:11:49.709Z,28.67
2018-08-09T06:14:20.766Z,29.59
2018-08-09T06:16:50.770Z,31.35
2018-08-09T06:19:21.046Z,24.90
2018-08-09T06:21:51.251Z,24.46
2018-08-09T06:24:21.631Z,24.36
2018-08-09T06:26:52.619Z,23.90
2018-08-09T06:29:22.812Z,22.86
2018-08-09T06:31:52.935Z,22.60
2018-08-09T06:34:23.517Z,22.96
2018-08-09T06:36:53.518Z,25.22
2018-08-09T06:39:23.270Z,25.90
2018-08-09T06:41:52.979Z,27.32
2018-08-09T06:44:22.880Z,29.83
2018-08-09T06:46:52.818Z,30.86
2018-08-09T06:49:24.001Z,30.31
2018-08-09T06:51:54.756Z,27.15
2018-08-09T06:54:24.641Z,28.95
2018-08-09T06:56:56.567Z,26.32
2018-08-09T06:59:26.743Z,23.66
2018-08-09T07:01:56.779Z,22.91
2018-08-09T07:04:26.847Z,23.41
2018-08-09T07:06:56.730Z,22.94
2018-08-09T07:09:26.611Z,22.85
2018-08-09T07:11:56.355Z,22.79
2018-08-09T07:14:26.231Z,22.84
2018-08-09T07:16:56.450Z,22.85
2018-08-09T07:19:26.280Z,22.53
2018-08-09T07:21:56.523Z,22.32
2018-08-09T07:24:26.355Z,22.41
2018-08-09T07:26:56.343Z,22.31
2018-08-09T07:29:26.150Z,22.48
2018-08-09T07:31:56.222Z,22.50
2018-08-09T07:34:26.064Z,22.45
2018-08-09T07:36:55.828Z,22.50
2018-08-09T07:39:26.569Z,22.56
2018-08-09T07:41:56.442Z,22.27
2018-08-09T07:44:26.862Z,22.01
2018-08-09T07:46:56.881Z,21.94
2018-08-09T07:49:26.599Z,21.57
2018-08-09T07:51:57.362Z,21.35
2018-08-09T07:54:28.549Z,21.06
2018-08-09T07:56:58.709Z,20.29
2018-08-09T07:59:28.819Z,20.06
2018-08-09T08:01:58.652Z,19.99
2018-08-09T08:04:29.062Z,19.63
2018-08-09T08:06:58.971Z,19.36
2018-08-09T08:09:29.759Z,19.25
2018-08-09T08:12:00.950Z,19.27
2018-08-09T08:14:31.000Z,19.21
2018-08-09T08:17:01.087Z,19.19
2018-08-09T08:19:31.218Z,19.44
2018-08-09T08:22:01.899Z,19.58
2018-08-09T08:24:32.514Z,19.75
2018-08-09T08:27:03.145Z,19.73
2018-08-09T08:29:36.070Z,19.86
2018-08-09T08:32:06.176Z,19.99
2018-08-09T08:34:36.412Z,19.92
2018-08-09T08:37:06.711Z,19.95
2018-08-09T08:39:36.471Z,20.09
2018-08-09T08:42:07.081Z,20.15
2018-08-09T08:44:37.014Z,20.32
2018-08-09T08:47:07.671Z,20.54
2018-08-09T08:49:37.687Z,20.34
2018-08-09T08:52:07.791Z,20.32
2018-08-09T08:54:38.323Z,20.07
2018-08-09T08:57:08.217Z,20.14
2018-08-09T08:59:38.688Z,20.21
2018-08-09T09:02:08.713Z,20.32
2018-08-09T09:04:38.816Z,20.36
2018-08-09T09:07:08.618Z,20.20
2018-08-09T09:09:38.256Z,20.21
2018-08-09T09:12:08.577Z,20.28
2018-08-09T09:14:39.003Z,20.53
2018-08-09T09:17:08.934Z,20.38
2018-08-09T09:19:39.016Z,20.49
2018-08-09T09:22:08.849Z,20.65
2018-08-09T09:24:38.506Z,20.93
2018-08-09T09:27:08.638Z,20.81
2018-08-09T09:29:38.469Z,20.69
2018-08-09T09:32:09.045Z,21.26
2018-08-09T09:34:39.193Z,21.44
2018-08-09T09:37:09.370Z,21.65
2018-08-09T09:39:39.560Z,21.36
2018-08-09T09:42:09.667Z,21.27
2018-08-09T09:44:39.905Z,21.30
2018-08-09T09:47:09.919Z,21.12
2018-08-09T09:49:40.627Z,21.05
2018-08-09T09:52:10.569Z,21.00
2018-08-09T09:54:40.791Z,21.48
2018-08-09T09:57:11.015Z,22.00
2018-08-09T09:59:40.926Z,22.77
2018-08-09T10:02:17.268Z,22.61
2018-08-09T10:04:47.936Z,23.48
2018-08-09T10:07:18.094Z,23.57
2018-08-09T10:09:48.011Z,24.56
2018-08-09T10:12:17.768Z,24.32
2018-08-09T10:14:47.647Z,25.61
2018-08-09T10:17:18.466Z,25.82
2018-08-09T10:19:48.357Z,25.60
2018-08-09T10:22:18.386Z,25.06
2018-08-09T10:24:49.097Z,24.28
2018-08-09T10:27:18.863Z,24.90
2018-08-09T10:29:49.556Z,24.83
2018-08-09T10:32:19.407Z,25.21
2018-08-09T10:34:49.384Z,25.11
2018-08-09T10:37:19.661Z,26.26
2018-08-09T10:39:49.428Z,25.97
2018-08-09T10:42:19.560Z,27.19
2018-08-09T10:44:49.509Z,26.76
2018-08-09T10:47:19.558Z,27.00
2018-08-09T10:49:50.126Z,27.14
2018-08-09T10:52:20.474Z,27.04
2018-08-09T10:54:50.413Z,26.94
2018-08-09T10:57:20.289Z,27.26
2018-08-09T10:59:50.817Z,27.29
2018-08-09T11:02:21.013Z,27.33
2018-08-09T11:04:51.132Z,27.91
2018-08-09T11:07:21.061Z,27.83
2018-08-09T11:09:51.473Z,27.98
2018-08-09T11:12:21.228Z,27.46
2018-08-09T11:14:51.034Z,27.46
2018-08-09T11:17:21.223Z,27.18
2018-08-09T11:19:51.516Z,27.11
2018-08-09T11:22:21.644Z,26.85
2018-08-09T11:24:52.082Z,27.65
2018-08-09T11:27:22.407Z,27.43
2018-08-09T11:29:52.410Z,27.57
2018-08-09T11:32:22.342Z,27.83
2018-08-09T11:34:52.251Z,28.03
2018-08-09T11:37:22.889Z,27.89
2018-08-09T11:39:53.001Z,28.12
2018-08-09T11:42:23.089Z,27.87
2018-08-09T11:44:53.122Z,28.11
2018-08-09T11:47:22.997Z,27.85
2018-08-09T11:49:52.774Z,27.93
2018-08-09T11:52:22.696Z,28.20
2018-08-09T11:54:52.443Z,28.84
2018-08-09T11:57:22.270Z,29.07
2018-08-09T11:59:52.275Z,28.64
2018-08-09T12:02:22.966Z,28.68
2018-08-09T12:04:52.985Z,28.90
2018-08-09T12:07:23.207Z,28.92
2018-08-09T12:09:53.152Z,29.25
2018-08-09T12:12:22.834Z,28.80
2018-08-09T12:14:52.922Z,28.86
2018-08-09T12:17:22.989Z,28.79
2018-08-09T12:19:53.196Z,28.82
2018-08-09T12:22:23.420Z,29.32
2018-08-09T12:24:53.799Z,29.71
2018-08-09T12:27:23.589Z,29.58
2018-08-09T12:29:53.543Z,29.91
2018-08-09T12:32:24.440Z,29.90
2018-08-09T12:34:54.261Z,30.04
2018-08-09T12:37:24.204Z,29.72
2018-08-09T12:39:54.144Z,29.68
2018-08-09T12:42:24.092Z,29.67
2018-08-09T12:44:53.811Z,29.75
2018-08-09T12:47:24.213Z,29.78
2018-08-09T12:49:54.147Z,29.81
2018-08-09T12:52:24.732Z,29.98
2018-08-09T12:54:54.496Z,29.91
2018-08-09T12:57:24.228Z,30.08
2018-08-09T12:59:54.080Z,30.08
2018-08-09T13:02:23.841Z,29.84
2018-08-09T13:04:53.601Z,29.91
2018-08-09T13:07:23.823Z,29.93
2018-08-09T13:09:53.922Z,30.17
2018-08-09T13:12:23.928Z,30.33
2018-08-09T13:14:53.721Z,30.68
2018-08-09T13:17:24.054Z,31.09
2018-08-09T13:19:54.069Z,31.11
2018-08-09T13:22:24.360Z,30.75
2018-08-09T13:24:54.247Z,30.46
2018-08-09T13:27:24.637Z,30.40
2018-08-09T13:29:54.795Z,30.66
2018-08-09T13:32:25.335Z,31.12
2018-08-09T13:34:56.261Z,30.99
2018-08-09T13:37:26.302Z,31.11
2018-08-09T13:39:56.591Z,31.24
2018-08-09T13:42:26.273Z,31.60
2018-08-09T13:44:56.235Z,31.48
2018-08-09T13:47:26.278Z,31.22
2018-08-09T13:49:56.834Z,31.47
2018-08-09T13:52:27.537Z,31.52
2018-08-09T13:54:57.364Z,31.37
2018-08-09T13:57:27.300Z,31.28
2018-08-09T13:59:58.277Z,31.36
2018-08-09T14:02:28.608Z,31.30
2018-08-09T14:04:58.524Z,31.25
2018-08-09T14:07:28.335Z,31.22
2018-08-09T14:09:59.163Z,31.18
2018-08-09T14:12:29.078Z,31.49
2018-08-09T14:14:58.696Z,31.51
2018-08-09T14:17:28.475Z,31.63
2018-08-09T14:19:58.908Z,31.73
2018-08-09T14:22:29.306Z,31.83
2018-08-09T14:24:59.200Z,31.74
2018-08-09T14:27:28.934Z,31.75
2018-08-09T14:29:58.683Z,31.77
2018-08-09T14:32:28.756Z,31.70
2018-08-09T14:34:58.864Z,31.68
2018-08-09T14:37:29.448Z,31.60
2018-08-09T14:39:59.269Z,31.57
2018-08-09T14:42:29.167Z,31.44
2018-08-09T14:44:59.045Z,31.20
2018-08-09T14:47:28.953Z,31.22
2018-08-09T14:49:58.752Z,31.19
2018-08-09T14:52:28.449Z,31.09
2018-08-09T14:54:58.499Z,30.89
2018-08-09T14:57:28.872Z,29.67
2018-08-09T14:59:58.842Z,27.47
2018-08-09T15:02:29.326Z,23.88
2018-08-09T15:04:59.391Z,21.96
2018-08-09T15:07:29.242Z,22.03
2018-08-09T15:09:59.235Z,22.11
2018-08-09T15:12:29.037Z,22.28
2018-08-09T15:14:59.134Z,22.49
2018-08-09T15:17:29.099Z,22.34
2018-08-09T15:19:59.263Z,22.28
2018-08-09T15:22:29.106Z,22.31
2018-08-09T15:24:58.957Z,22.03
2018-08-09T15:27:29.253Z,21.94
2018-08-09T15:29:59.395Z,21.78
2018-08-09T15:32:29.284Z,21.80
2018-08-09T15:34:59.033Z,21.70
2018-08-09T15:37:28.925Z,21.69
2018-08-09T15:39:58.819Z,21.54
2018-08-09T15:42:28.581Z,21.64
2018-08-09T15:44:58.558Z,21.66
2018-08-09T15:47:28.514Z,21.39
2018-08-09T15:49:58.444Z,21.58
2018-08-09T15:52:28.339Z,21.50
2018-08-09T15:54:58.505Z,21.50
2018-08-09T15:57:28.637Z,21.43
2018-08-09T15:59:58.937Z,21.41
2018-08-09T16:02:29.092Z,21.25
2018-08-09T16:04:58.893Z,21.15
2018-08-09T16:07:28.907Z,21.18
2018-08-09T16:09:58.894Z,21.10
2018-08-09T16:12:29.899Z,21.15
2018-08-09T16:14:59.772Z,21.37
2018-08-09T16:17:29.674Z,21.38
2018-08-09T16:20:00.178Z,21.52
2018-08-09T16:22:30.461Z,21.63
2018-08-09T16:25:00.830Z,21.70
2018-08-09T16:27:30.810Z,21.84
2018-08-09T16:30:00.566Z,21.74
2018-08-09T16:32:30.461Z,21.84
2018-08-09T16:35:00.415Z,21.98
2018-08-09T16:37:31.027Z,22.06
2018-08-09T16:40:00.891Z,22.05
2018-08-09T16:42:31.259Z,21.85
2018-08-09T16:45:01.290Z,22.02
2018-08-09T16:47:31.444Z,21.95
2018-08-09T16:50:01.594Z,21.98
2018-08-09T16:52:31.653Z,22.05
2018-08-09T16:55:02.354Z,22.15
2018-08-09T16:57:32.873Z,22.19
2018-08-09T17:00:02.861Z,22.22
2018-08-09T17:02:32.667Z,22.26
2018-08-09T17:05:02.884Z,22.13
2018-08-09T17:07:33.033Z,22.24
2018-08-09T17:10:03.344Z,22.26
2018-08-09T17:12:33.636Z,22.39
2018-08-09T17:15:03.423Z,22.34
2018-08-09T17:17:33.024Z,22.28
2018-08-09T17:20:02.771Z,22.22
2018-08-09T17:22:33.093Z,22.41
2018-08-09T17:25:03.153Z,22.35
2018-08-09T17:27:32.880Z,22.34
2018-08-09T17:30:03.046Z,22.31
2018-08-09T17:32:38.269Z,22.44
2018-08-09T17:35:14.814Z,22.32
2018-08-09T17:37:44.816Z,22.41
2018-08-09T17:40:27.549Z,22.24
2018-08-09T17:42:58.595Z,22.43
2018-08-09T17:45:32.532Z,22.38
2018-08-09T17:48:03.570Z,22.53
2018-08-09T17:50:33.847Z,22.48
2018-08-09T17:53:05.107Z,22.57
2018-08-09T17:55:35.239Z,22.56
2018-08-09T17:58:05.667Z,22.59
2018-08-09T18:00:36.201Z,22.61
2018-08-09T18:03:06.398Z,22.49
2018-08-09T18:05:37.393Z,22.56
2018-08-09T18:08:07.435Z,22.57
2018-08-09T18:10:37.653Z,22.62
2018-08-09T18:13:07.409Z,22.66
2018-08-09T18:15:37.436Z,22.57
2018-08-09T18:18:07.946Z,22.55
2018-08-09T18:20:38.736Z,22.53
2018-08-09T18:23:08.915Z,22.49
2018-08-09T18:25:38.896Z,22.59
2018-08-09T18:28:10.095Z,22.64
2018-08-09T18:30:40.060Z,22.45
2018-08-09T18:33:09.873Z,22.43
2018-08-09T18:35:40.687Z,22.58
2018-08-09T18:38:12.061Z,22.64
2018-08-09T18:40:41.971Z,22.61
2018-08-09T18:43:12.039Z,22.53
2018-08-09T18:45:42.606Z,22.58
2018-08-09T18:48:13.323Z,22.61
2018-08-09T18:50:43.093Z,22.60
2018-08-09T18:53:12.819Z,22.58
2018-08-09T18:55:42.626Z,22.64
2018-08-09T18:58:13.661Z,22.62
2018-08-09T19:00:44.088Z,22.55
2018-08-09T19:03:13.841Z,22.46
2018-08-09T19:05:43.905Z,22.49
2018-08-09T19:08:14.934Z,22.55
2018-08-09T19:10:44.733Z,22.50
2018-08-09T19:13:15.301Z,22.59
2018-08-09T19:15:45.121Z,22.63
2018-08-09T19:18:14.956Z,22.71
2018-08-09T19:20:44.669Z,22.58
2018-08-09T19:23:15.880Z,22.54
2018-08-09T19:25:45.553Z,22.47
2018-08-09T19:28:15.341Z,22.47
2018-08-09T19:30:45.502Z,22.43
2018-08-09T19:33:15.807Z,22.41
2018-08-09T19:35:46.038Z,22.45
2018-08-09T19:38:15.796Z,22.38
2018-08-09T19:40:45.830Z,22.51
2018-08-09T19:43:15.706Z,22.46
2018-08-09T19:45:45.550Z,22.48
2018-08-09T19:48:15.391Z,22.45
2018-08-09T19:50:45.293Z,22.35
2018-08-09T19:53:15.402Z,22.44
2018-08-09T19:55:45.484Z,22.29
2018-08-09T19:58:15.616Z,22.29
2018-08-09T20:00:45.373Z,22.36
2018-08-09T20:03:17.154Z,22.40
2018-08-09T20:05:46.836Z,22.42
2018-08-09T20:08:16.817Z,22.41
2018-08-09T20:10:46.961Z,22.25
2018-08-09T20:13:16.943Z,22.39
2018-08-09T20:15:47.040Z,22.36
2018-08-09T20:18:17.320Z,22.37
2018-08-09T20:20:47.348Z,22.33
2018-08-09T20:23:17.458Z,22.35
2018-08-09T20:25:48.352Z,22.25
2018-08-09T20:28:18.261Z,22.11
2018-08-09T20:30:48.465Z,22.02
2018-08-09T20:33:18.280Z,21.85
2018-08-09T20:35:49.106Z,21.85
2018-08-09T20:38:18.886Z,21.63
2018-08-09T20:40:49.237Z,21.70
2018-08-09T20:43:19.752Z,21.52
2018-08-09T20:45:49.545Z,21.51
2018-08-09T20:48:20.115Z,21.40
2018-08-09T20:50:49.949Z,21.39
2018-08-09T20:53:20.209Z,21.32
2018-08-09T20:55:50.337Z,21.27
2018-08-09T20:58:21.541Z,21.14
2018-08-09T21:00:51.784Z,21.07
2018-08-09T21:03:23.955Z,21.03
2018-08-09T21:05:54.135Z,20.93
2018-08-09T21:08:23.876Z,20.85
2018-08-09T21:10:53.651Z,20.81
2018-08-09T21:13:23.822Z,20.84
2018-08-09T21:15:53.729Z,20.84
2018-08-09T21:18:23.490Z,20.82
2018-08-09T21:20:53.378Z,20.74
2018-08-09T21:23:23.413Z,20.70
2018-08-09T21:25:53.263Z,20.65
2018-08-09T21:28:23.260Z,20.65
2018-08-09T21:30:53.016Z,20.62
2018-08-09T21:33:22.630Z,20.60
2018-08-09T21:35:53.465Z,20.68
2018-08-09T21:38:23.203Z,20.52
2018-08-09T21:40:53.438Z,20.68
2018-08-09T21:43:23.324Z,20.63
2018-08-09T21:45:53.186Z,20.52
2018-08-09T21:48:23.085Z,20.65
2018-08-09T21:50:52.863Z,20.47
2018-08-09T21:53:22.795Z,20.40
2018-08-09T21:55:52.617Z,20.50
2018-08-09T21:58:22.470Z,20.42
2018-08-09T22:00:58.021Z,20.40
2018-08-09T22:03:31.564Z,20.34
2018-08-09T22:06:06.482Z,20.34
2018-08-09T22:08:41.548Z,20.30
2018-08-09T22:11:18.244Z,20.36
2018-08-09T22:13:53.285Z,20.33
2018-08-09T22:16:28.544Z,20.32
2018-08-09T22:19:04.101Z,20.32
2018-08-09T22:21:39.063Z,20.30
2018-08-09T22:24:08.733Z,20.35
2018-08-09T22:26:38.583Z,20.31
2018-08-09T22:29:08.520Z,20.34
2018-08-09T22:31:38.281Z,20.32
2018-08-09T22:34:08.841Z,20.35
2018-08-09T22:36:38.504Z,20.27
2018-08-09T22:39:10.453Z,20.28
2018-08-09T22:41:40.528Z,20.26
2018-08-09T22:44:10.484Z,20.24
2018-08-09T22:46:40.483Z,20.27
2018-08-09T22:49:10.494Z,20.18
2018-08-09T22:51:40.388Z,20.10
2018-08-09T22:54:10.240Z,20.03
2018-08-09T22:56:40.185Z,20.03
2018-08-09T22:59:10.137Z,20.14
2018-08-09T23:01:40.152Z,19.98
2018-08-09T23:04:10.524Z,19.95
2018-08-09T23:06:40.218Z,19.88
2018-08-09T23:09:11.620Z,19.81
2018-08-09T23:11:41.492Z,19.81
2018-08-09T23:14:11.867Z,19.74
2018-08-09T23:16:41.638Z,19.66
2018-08-09T23:19:11.738Z,19.63
2018-08-09T23:21:41.496Z,19.61
2018-08-09T23:24:11.528Z,19.53
2018-08-09T23:26:41.508Z,19.49
2018-08-09T23:29:11.575Z,19.43
2018-08-09T23:31:41.414Z,19.29
2018-08-09T23:34:11.712Z,19.23
2018-08-09T23:36:41.832Z,19.14
2018-08-09T23:39:13.074Z,19.21
2018-08-09T23:41:43.956Z,19.09
2018-08-09T23:44:13.764Z,18.95
2018-08-09T23:46:43.550Z,18.96
2018-08-09T23:49:13.998Z,18.99
2018-08-09T23:51:43.877Z,18.85
2018-08-09T23:54:13.591Z,18.88
2018-08-09T23:56:43.599Z,18.89
2018-08-09T23:59:13.549Z,18.97
